Terminal Aerodrome Forecast
Issued by NWS

Home | Current Version | Previous Version | Text Only | Print | Product List | Glossary On
Versions: 1 2 3 4 5 6 7 8 9 10 11 12 13 14 15 16 17
911
FTUS41 KPBZ 291136
TAFBVI
TAF
KBVI 291136Z 2912/3012 09010KT P6SM VCSH OVC015
      TEMPO 2912/2913 BKN006
     FM291500 09009G17KT 6SM -SHRA OVC025
     FM300000 09011G21KT 3SM -SHRA BR OVC025
     FM300900 09011KT P6SM VCSH OVC025=

USA.gov is the U.S. government's official web portal to all federal, state and local government web resources and services.